createdAt,value
2017-10-03T00:00:16.985Z,100524.70
2017-10-03T00:02:45.514Z,100520.22
2017-10-03T00:05:12.829Z,100509.98
2017-10-03T00:07:39.954Z,100513.53
2017-10-03T00:10:08.180Z,100519.79
2017-10-03T00:12:35.039Z,100520.81
2017-10-03T00:15:04.332Z,100516.13
2017-10-03T00:17:31.232Z,100513.91
2017-10-03T00:19:58.048Z,100513.52
2017-10-03T00:22:25.834Z,100522.23
2017-10-03T00:24:53.528Z,100515.90
2017-10-03T00:27:20.403Z,100512.03
2017-10-03T00:29:47.278Z,100506.14
2017-10-03T00:32:14.205Z,100499.44
2017-10-03T00:34:42.484Z,100495.38
2017-10-03T00:37:10.065Z,100484.98
2017-10-03T00:39:36.988Z,100489.42
2017-10-03T00:42:04.166Z,100480.27
2017-10-03T00:44:31.106Z,100482.66
2017-10-03T00:46:58.331Z,100484.10
2017-10-03T00:49:26.081Z,100480.13
2017-10-03T00:51:53.770Z,100478.15
2017-10-03T00:54:21.486Z,100486.08
2017-10-03T00:56:49.122Z,100492.20
2017-10-03T00:59:16.066Z,100489.59
2017-10-03T01:01:42.983Z,100490.92
2017-10-03T01:04:09.813Z,100494.82
2017-10-03T01:06:36.724Z,100492.75
2017-10-03T01:09:05.084Z,100501.23
2017-10-03T01:11:31.968Z,100491.89
2017-10-03T01:13:59.613Z,100505.19
2017-10-03T01:16:26.462Z,100502.99
2017-10-03T01:18:53.326Z,100509.02
2017-10-03T01:21:20.245Z,100505.72
2017-10-03T01:23:47.976Z,100501.23
2017-10-03T01:26:14.903Z,100496.98
2017-10-03T01:28:42.188Z,100491.73
2017-10-03T01:31:08.996Z,100478.88
2017-10-03T01:33:35.833Z,100481.71
2017-10-03T01:36:02.670Z,100491.84
2017-10-03T01:38:29.512Z,100499.88
2017-10-03T01:40:56.446Z,100509.53
2017-10-03T01:43:23.291Z,100506.06
2017-10-03T01:45:50.195Z,100496.85
2017-10-03T01:48:17.797Z,100505.33
2017-10-03T01:50:44.671Z,100507.80
2017-10-03T01:53:11.658Z,100514.16
2017-10-03T01:55:38.535Z,100501.02
2017-10-03T01:58:05.371Z,100492.16
2017-10-03T02:00:32.159Z,100495.14
2017-10-03T02:02:59.010Z,100492.17
2017-10-03T02:05:25.842Z,100492.72
2017-10-03T02:07:52.636Z,100491.66
2017-10-03T02:10:19.533Z,100494.55
2017-10-03T02:12:46.364Z,100494.89
2017-10-03T02:15:13.208Z,100494.03
2017-10-03T02:17:40.024Z,100499.09
2017-10-03T02:20:06.830Z,100495.45
2017-10-03T02:22:33.758Z,100502.77
2017-10-03T02:25:00.604Z,100507.70
2017-10-03T02:27:27.434Z,100506.39
2017-10-03T02:29:54.998Z,100509.28
2017-10-03T02:32:21.875Z,100509.75
2017-10-03T02:34:49.448Z,100511.34
2017-10-03T02:37:16.360Z,100508.48
2017-10-03T02:39:43.190Z,100506.48
2017-10-03T02:42:10.843Z,100504.05
2017-10-03T02:44:37.663Z,100508.24
2017-10-03T02:47:04.500Z,100519.48
2017-10-03T02:49:31.342Z,100515.42
2017-10-03T02:51:58.921Z,100520.50
2017-10-03T02:54:26.554Z,100523.41
2017-10-03T02:56:53.373Z,100521.54
2017-10-03T02:59:21.031Z,100514.58
2017-10-03T03:01:48.681Z,100522.37
2017-10-03T03:04:15.529Z,100529.19
2017-10-03T03:06:42.515Z,100526.88
2017-10-03T03:09:09.472Z,100523.48
2017-10-03T03:11:36.316Z,100518.88
2017-10-03T03:14:03.191Z,100526.61
2017-10-03T03:16:30.087Z,100526.27
2017-10-03T03:18:56.989Z,100530.53
2017-10-03T03:21:23.835Z,100534.34
2017-10-03T03:23:50.716Z,100530.64
2017-10-03T03:26:17.594Z,100531.64
2017-10-03T03:28:44.435Z,100532.86
2017-10-03T03:31:11.248Z,100533.30
2017-10-03T03:33:38.074Z,100535.77
2017-10-03T03:36:04.901Z,100528.17
2017-10-03T03:38:31.757Z,100530.95
2017-10-03T03:40:59.362Z,100539.03
2017-10-03T03:43:26.177Z,100540.08
2017-10-03T03:45:53.163Z,100546.05
2017-10-03T03:48:21.419Z,100548.21
2017-10-03T03:50:48.228Z,100552.77
2017-10-03T03:53:15.037Z,100550.81
2017-10-03T03:55:41.879Z,100550.83
2017-10-03T03:58:08.721Z,100549.44
2017-10-03T04:00:35.603Z,100550.66
2017-10-03T04:03:02.469Z,100545.17
2017-10-03T04:05:29.296Z,100551.11
2017-10-03T04:07:56.111Z,100552.16
2017-10-03T04:10:22.892Z,100557.99
2017-10-03T04:12:50.494Z,100564.88
2017-10-03T04:15:17.353Z,100563.90
2017-10-03T04:17:44.243Z,100563.79
2017-10-03T04:20:11.134Z,100568.37
2017-10-03T04:22:38.128Z,100572.87
2017-10-03T04:25:04.961Z,100576.94
2017-10-03T04:27:31.764Z,100577.06
2017-10-03T04:29:58.593Z,100580.02
2017-10-03T04:32:25.405Z,100573.34
2017-10-03T04:34:52.214Z,100584.78
2017-10-03T04:37:19.065Z,100587.77
2017-10-03T04:39:45.907Z,100583.38
2017-10-03T04:42:12.714Z,100589.85
2017-10-03T04:44:39.530Z,100595.58
2017-10-03T04:47:06.367Z,100594.60
2017-10-03T04:49:33.223Z,100593.69
2017-10-03T04:52:00.028Z,100599.20
2017-10-03T04:54:26.850Z,100604.37
2017-10-03T04:56:53.669Z,100613.05
2017-10-03T04:59:21.246Z,100612.19
2017-10-03T05:01:48.815Z,100605.66
2017-10-03T05:04:15.674Z,100615.60
2017-10-03T05:06:42.472Z,100621.18
2017-10-03T05:09:09.315Z,100615.59
2017-10-03T05:11:36.945Z,100623.56
2017-10-03T05:14:03.765Z,100624.67
2017-10-03T05:16:30.683Z,100625.50
2017-10-03T05:18:57.606Z,100627.94
2017-10-03T05:21:24.439Z,100626.90
2017-10-03T05:23:52.077Z,100630.73
2017-10-03T05:26:19.178Z,100643.00
2017-10-03T05:28:46.793Z,100645.06
2017-10-03T05:31:13.607Z,100648.86
2017-10-03T05:33:40.508Z,100650.73
2017-10-03T05:36:07.306Z,100657.40
2017-10-03T05:38:34.189Z,100656.17
2017-10-03T05:41:01.145Z,100664.77
2017-10-03T05:43:27.935Z,100665.94
2017-10-03T05:45:54.773Z,100667.63
2017-10-03T05:48:21.631Z,100677.22
2017-10-03T05:50:49.211Z,100675.89
2017-10-03T05:53:16.024Z,100665.88
2017-10-03T05:55:42.852Z,100677.42
2017-10-03T05:58:10.470Z,100682.05
2017-10-03T06:00:38.050Z,100689.62
2017-10-03T06:03:04.864Z,100693.92
2017-10-03T06:05:32.544Z,100694.34
2017-10-03T06:08:00.134Z,100695.25
2017-10-03T06:10:27.718Z,100703.31
2017-10-03T06:12:54.580Z,100707.92
2017-10-03T06:15:21.476Z,100714.52
2017-10-03T06:17:49.087Z,100720.62
2017-10-03T06:20:15.895Z,100712.79
2017-10-03T06:22:42.716Z,100719.89
2017-10-03T06:25:10.297Z,100726.19
2017-10-03T06:27:37.899Z,100736.41
2017-10-03T06:30:04.806Z,100733.61
2017-10-03T06:32:31.674Z,100735.83
2017-10-03T06:34:58.574Z,100743.14
2017-10-03T06:37:25.446Z,100746.72
2017-10-03T06:39:52.319Z,100745.91
2017-10-03T06:42:19.105Z,100748.47
2017-10-03T06:44:45.982Z,100756.34
2017-10-03T06:47:14.157Z,100754.49
2017-10-03T06:49:41.082Z,100762.58
2017-10-03T06:52:07.942Z,100769.11
2017-10-03T06:54:34.803Z,100763.68
2017-10-03T06:57:01.619Z,100771.11
2017-10-03T06:59:28.554Z,100773.00
2017-10-03T07:01:55.415Z,100780.02
2017-10-03T07:04:22.328Z,100791.66
2017-10-03T07:06:49.213Z,100794.11
2017-10-03T07:09:16.083Z,100795.79
2017-10-03T07:11:42.985Z,100800.16
2017-10-03T07:14:09.935Z,100811.74
2017-10-03T07:16:36.750Z,100805.77
2017-10-03T07:19:04.399Z,100803.10
2017-10-03T07:21:31.303Z,100815.25
2017-10-03T07:23:58.295Z,100821.11
2017-10-03T07:26:25.331Z,100821.78
2017-10-03T07:28:52.205Z,100817.45
2017-10-03T07:31:20.375Z,100817.59
2017-10-03T07:33:47.975Z,100819.50
2017-10-03T07:36:14.892Z,100820.88
2017-10-03T07:38:42.013Z,100829.14
2017-10-03T07:41:08.886Z,100837.05
2017-10-03T07:43:35.834Z,100842.55
2017-10-03T07:46:02.705Z,100846.55
2017-10-03T07:48:29.565Z,100846.09
2017-10-03T07:50:56.431Z,100845.27
2017-10-03T07:53:23.275Z,100855.22
2017-10-03T07:55:50.505Z,100859.44
2017-10-03T07:58:17.317Z,100857.79
2017-10-03T08:00:44.242Z,100857.13
2017-10-03T08:03:11.883Z,100862.73
2017-10-03T08:05:38.768Z,100875.53
2017-10-03T08:08:05.721Z,100883.59
2017-10-03T08:10:33.857Z,100886.34
2017-10-03T08:13:00.731Z,100894.69
2017-10-03T08:15:27.620Z,100896.94
2017-10-03T08:17:54.457Z,100896.62
2017-10-03T08:20:21.312Z,100903.28
2017-10-03T08:22:48.173Z,100904.94
2017-10-03T08:25:15.009Z,100910.69
2017-10-03T08:27:42.606Z,100905.58
2017-10-03T08:30:09.520Z,100916.62
2017-10-03T08:32:36.406Z,100921.72
2017-10-03T08:35:03.997Z,100920.23
2017-10-03T08:37:31.583Z,100925.95
2017-10-03T08:39:58.462Z,100929.59
2017-10-03T08:42:25.346Z,100934.69
2017-10-03T08:44:52.228Z,100943.31
2017-10-03T08:47:19.113Z,100940.88
2017-10-03T08:49:46.711Z,100949.14
2017-10-03T08:52:13.575Z,100947.22
2017-10-03T08:54:40.426Z,100958.11
2017-10-03T08:57:07.272Z,100955.70
2017-10-03T08:59:34.845Z,100956.55
2017-10-03T09:02:01.658Z,100961.03
2017-10-03T09:04:28.492Z,100965.20
2017-10-03T09:06:55.396Z,100966.70
2017-10-03T09:09:22.223Z,100979.55
2017-10-03T09:11:49.093Z,100980.24
2017-10-03T09:14:15.968Z,100975.84
2017-10-03T09:16:42.869Z,100981.74
2017-10-03T09:19:09.691Z,100980.00
2017-10-03T09:21:36.546Z,100989.80
2017-10-03T09:24:03.402Z,100990.13
2017-10-03T09:26:30.294Z,100991.28
2017-10-03T09:28:57.156Z,100991.28
2017-10-03T09:31:24.061Z,101002.96
2017-10-03T09:33:50.939Z,101007.64
2017-10-03T09:36:17.854Z,101007.00
2017-10-03T09:38:44.733Z,101004.02
2017-10-03T09:41:12.315Z,101013.03
2017-10-03T09:56:41.841Z,101030.41
2017-10-03T09:59:08.790Z,101037.61
2017-10-03T10:01:35.632Z,101041.66
2017-10-03T10:04:02.530Z,101035.45
2017-10-03T10:06:29.468Z,101039.70
2017-10-03T10:08:56.359Z,101036.86
2017-10-03T10:11:23.176Z,101045.16
2017-10-03T10:13:50.084Z,101050.42
2017-10-03T10:16:16.964Z,101052.02
2017-10-03T10:18:43.932Z,101047.10
2017-10-03T10:21:10.799Z,101053.52
2017-10-03T10:23:37.716Z,101058.69
2017-10-03T10:26:05.281Z,101061.41
2017-10-03T10:28:32.183Z,101059.86
2017-10-03T10:30:59.070Z,101068.80
2017-10-03T10:33:25.971Z,101065.48
2017-10-03T10:35:52.835Z,101068.83
2017-10-03T10:38:19.711Z,101076.32
2017-10-03T10:40:46.547Z,101076.94
2017-10-03T10:43:13.382Z,101073.02
2017-10-03T10:45:40.976Z,101084.30
2017-10-03T10:48:08.619Z,101085.05
2017-10-03T10:50:35.436Z,101090.55
2017-10-03T10:53:02.401Z,101098.25
2017-10-03T10:55:29.219Z,101104.59
2017-10-03T10:57:56.100Z,101109.17
2017-10-03T11:00:22.950Z,101108.19
2017-10-03T11:02:50.597Z,101105.83
2017-10-03T11:05:17.451Z,101111.91
2017-10-03T11:07:44.342Z,101112.75
2017-10-03T11:10:11.171Z,101127.97
2017-10-03T11:12:38.043Z,101123.53
2017-10-03T11:15:04.905Z,101127.98
2017-10-03T11:17:31.879Z,101127.55
2017-10-03T11:19:58.726Z,101127.95
2017-10-03T11:22:25.731Z,101127.49
2017-10-03T11:24:53.502Z,101126.89
2017-10-03T11:27:20.383Z,101123.28
2017-10-03T11:29:47.578Z,101133.69
2017-10-03T11:32:14.837Z,101147.51
2017-10-03T11:34:41.694Z,101149.64
2017-10-03T11:37:08.569Z,101158.42
2017-10-03T11:39:35.522Z,101146.36
2017-10-03T11:42:02.389Z,101153.31
2017-10-03T11:44:29.245Z,101145.51
2017-10-03T11:46:56.080Z,101153.44
2017-10-03T11:49:24.401Z,101159.51
2017-10-03T11:51:52.925Z,101168.17
2017-10-03T11:54:22.443Z,101166.31
2017-10-03T11:56:49.714Z,101172.91
2017-10-03T11:59:16.914Z,101176.48
2017-10-03T12:01:45.075Z,101182.67
2017-10-03T12:04:14.523Z,101181.00
2017-10-03T12:06:43.386Z,101181.91
2017-10-03T12:09:12.685Z,101186.89
2017-10-03T12:11:45.907Z,101184.91
2017-10-03T12:14:16.338Z,101178.84
2017-10-03T12:16:43.928Z,101180.45
2017-10-03T12:19:11.827Z,101180.20
2017-10-03T12:21:38.776Z,101180.79
2017-10-03T12:24:07.033Z,101187.50
2017-10-03T12:26:35.258Z,101183.86
2017-10-03T12:29:02.381Z,101189.67
2017-10-03T12:31:29.262Z,101188.85
2017-10-03T12:33:57.331Z,101195.14
2017-10-03T12:36:24.230Z,101198.72
2017-10-03T12:38:51.901Z,101198.61
2017-10-03T12:41:18.826Z,101206.03
2017-10-03T12:43:45.671Z,101205.34
2017-10-03T12:46:12.492Z,101227.50
2017-10-03T12:48:40.052Z,101237.33
2017-10-03T12:51:06.917Z,101233.73
2017-10-03T12:53:33.791Z,101226.91
2017-10-03T12:56:02.253Z,101226.13
2017-10-03T12:58:29.919Z,101230.59
2017-10-03T13:00:56.739Z,101233.94
2017-10-03T13:03:23.684Z,101233.05
2017-10-03T13:05:50.527Z,101239.97
2017-10-03T13:08:17.489Z,101230.42
2017-10-03T13:10:44.683Z,101230.44
2017-10-03T13:13:11.770Z,101233.55
2017-10-03T13:15:38.625Z,101234.67
2017-10-03T13:18:05.440Z,101236.38
2017-10-03T13:20:32.298Z,101235.06
2017-10-03T13:22:59.277Z,101234.48
2017-10-03T13:25:26.082Z,101229.94
2017-10-03T13:27:52.998Z,101220.33
2017-10-03T13:30:19.850Z,101222.41
2017-10-03T13:32:46.743Z,101224.48
2017-10-03T13:35:14.634Z,101222.63
2017-10-03T13:37:41.709Z,101222.93
2017-10-03T13:40:08.766Z,101224.05
2017-10-03T13:42:35.736Z,101230.41
2017-10-03T13:45:02.781Z,101233.16
2017-10-03T13:47:29.665Z,101238.59
2017-10-03T13:49:56.669Z,101239.73
2017-10-03T13:52:23.675Z,101242.86
2017-10-03T13:54:51.276Z,101246.61
2017-10-03T13:57:18.215Z,101256.13
2017-10-03T13:59:45.804Z,101251.31
2017-10-03T14:02:13.371Z,101260.48
2017-10-03T14:04:40.980Z,101261.53
2017-10-03T14:07:07.844Z,101252.64
2017-10-03T14:09:34.696Z,101255.70
2017-10-03T14:12:01.578Z,101262.40
2017-10-03T14:14:28.426Z,101259.95
2017-10-03T14:16:55.242Z,101265.44
2017-10-03T14:19:22.542Z,101267.69
2017-10-03T14:21:49.506Z,101270.34
2017-10-03T14:24:16.405Z,101275.05
2017-10-03T14:26:43.349Z,101281.27
2017-10-03T14:29:10.292Z,101286.13
2017-10-03T14:31:37.894Z,101288.34
2017-10-03T14:34:04.729Z,101293.80
2017-10-03T14:36:32.343Z,101282.13
2017-10-03T14:38:59.380Z,101283.20
2017-10-03T14:41:26.975Z,101284.64
2017-10-03T14:43:53.813Z,101277.51
2017-10-03T14:46:20.639Z,101273.22
2017-10-03T14:48:47.479Z,101274.28
2017-10-03T14:51:14.405Z,101274.93
2017-10-03T14:53:41.406Z,101272.30
2017-10-03T14:56:08.483Z,101274.72
2017-10-03T14:58:35.343Z,101288.29
2017-10-03T15:01:02.238Z,101293.45
2017-10-03T15:03:29.135Z,101292.17
2017-10-03T15:05:56.006Z,101294.62
2017-10-03T15:08:22.890Z,101306.09
2017-10-03T15:10:49.801Z,101295.91
2017-10-03T15:13:17.394Z,101307.77
2017-10-03T15:15:45.001Z,101317.16
2017-10-03T15:18:11.841Z,101316.95
2017-10-03T15:20:38.800Z,101328.63
2017-10-03T15:23:05.800Z,101321.31
2017-10-03T15:25:32.887Z,101321.18
2017-10-03T15:27:59.788Z,101319.38
2017-10-03T15:30:27.433Z,101330.52
2017-10-03T15:32:54.373Z,101334.55
2017-10-03T15:35:21.276Z,101335.52
2017-10-03T15:37:48.880Z,101335.16
2017-10-03T15:40:16.085Z,101339.42
2017-10-03T15:42:43.013Z,101335.30
2017-10-03T15:45:09.873Z,101338.55
2017-10-03T15:47:36.824Z,101337.36
2017-10-03T15:50:04.471Z,101341.91
2017-10-03T16:05:22.785Z,101378.18
2017-10-03T16:07:49.761Z,101379.92
2017-10-03T16:10:16.629Z,101382.44
2017-10-03T16:12:44.272Z,101379.89
2017-10-03T16:15:12.000Z,101369.16
2017-10-03T16:17:40.072Z,101380.77
2017-10-03T16:20:07.766Z,101368.56
2017-10-03T16:22:36.490Z,101383.86
2017-10-03T16:25:04.514Z,101385.02
2017-10-03T16:27:31.776Z,101383.41
2017-10-03T16:29:58.760Z,101386.06
2017-10-03T16:32:26.073Z,101378.16
2017-10-03T16:34:55.125Z,101386.34
2017-10-03T16:37:22.271Z,101393.27
2017-10-03T16:39:49.539Z,101399.70
2017-10-03T16:42:16.563Z,101406.71
2017-10-03T16:44:43.622Z,101415.07
2017-10-03T16:47:11.497Z,101423.40
2017-10-03T16:49:38.433Z,101417.85
2017-10-03T16:52:05.373Z,101417.47
2017-10-03T16:54:32.932Z,101423.33
2017-10-03T16:57:00.183Z,101419.80
2017-10-03T16:59:27.955Z,101430.98
2017-10-03T17:01:56.142Z,101434.75
2017-10-03T17:04:23.764Z,101439.50
2017-10-03T17:06:51.666Z,101441.70
2017-10-03T17:09:18.534Z,101445.05
2017-10-03T17:11:45.410Z,101443.52
2017-10-03T17:14:12.275Z,101453.31
2017-10-03T17:16:39.147Z,101448.27
2017-10-03T17:21:39.755Z,101452.56
2017-10-03T17:24:06.849Z,101457.25
2017-10-03T17:26:34.428Z,101454.19
2017-10-03T17:29:02.160Z,101467.60
2017-10-03T17:31:29.021Z,101462.97
2017-10-03T17:33:55.916Z,101465.23
2017-10-03T17:36:22.884Z,101476.27
2017-10-03T17:38:49.895Z,101469.00
2017-10-03T17:41:16.711Z,101480.00
2017-10-03T17:43:44.420Z,101477.20
2017-10-03T17:46:11.271Z,101483.58
2017-10-03T17:48:38.840Z,101483.45
2017-10-03T17:51:06.393Z,101488.50
2017-10-03T17:53:33.239Z,101494.22
2017-10-03T17:56:00.582Z,101498.41
2017-10-03T17:58:27.513Z,101500.59
2017-10-03T18:00:55.698Z,101501.63
2017-10-03T18:03:24.141Z,101502.17
2017-10-03T18:05:51.910Z,101505.60
2017-10-03T18:08:19.972Z,101508.44
2017-10-03T18:10:47.993Z,101499.16
2017-10-03T18:13:15.214Z,101493.48
2017-10-03T18:15:44.646Z,101502.64
2017-10-03T18:18:13.509Z,101500.91
2017-10-03T18:20:41.861Z,101504.98
2017-10-03T18:23:10.243Z,101511.66
2017-10-03T18:25:39.058Z,101520.91
2017-10-03T18:28:08.064Z,101524.20
2017-10-03T18:30:36.937Z,101520.84
2017-10-03T18:33:05.910Z,101525.78
2017-10-03T18:35:35.209Z,101535.77
2017-10-03T18:38:04.120Z,101536.62
2017-10-03T18:40:33.342Z,101547.04
2017-10-03T18:43:02.354Z,101555.90
2017-10-03T18:45:31.956Z,101558.48
2017-10-03T18:48:00.740Z,101566.58
2017-10-03T18:50:29.736Z,101564.22
2017-10-03T18:52:58.794Z,101569.48
2017-10-03T18:55:27.611Z,101572.32
2017-10-03T18:57:57.308Z,101575.70
2017-10-03T19:00:26.510Z,101578.78
2017-10-03T19:02:55.277Z,101577.45
2017-10-03T19:05:24.154Z,101583.82
2017-10-03T19:07:53.757Z,101589.30
2017-10-03T19:10:22.748Z,101588.95
2017-10-03T19:12:51.535Z,101585.25
2017-10-03T19:15:20.028Z,101582.53
2017-10-03T19:17:48.897Z,101588.34
2017-10-03T19:20:17.385Z,101586.92
2017-10-03T19:22:46.131Z,101593.79
2017-10-03T19:25:15.683Z,101585.29
2017-10-03T19:27:44.270Z,101589.45
2017-10-03T19:30:13.834Z,101597.29
2017-10-03T19:32:41.070Z,101592.36
2017-10-03T19:35:08.547Z,101586.37
2017-10-03T19:37:35.640Z,101589.77
2017-10-03T19:40:02.702Z,101590.97
2017-10-03T19:42:29.841Z,101597.48
2017-10-03T19:44:56.771Z,101590.14
2017-10-03T19:47:24.395Z,101600.00
2017-10-03T19:49:51.311Z,101591.25
2017-10-03T19:52:18.963Z,101598.22
2017-10-03T19:54:45.791Z,101600.36
2017-10-03T19:57:12.644Z,101602.14
2017-10-03T19:59:39.611Z,101600.92
2017-10-03T20:02:06.535Z,101602.89
2017-10-03T20:04:34.186Z,101604.17
2017-10-03T20:07:01.046Z,101603.03
2017-10-03T20:09:28.035Z,101605.80
2017-10-03T20:11:55.740Z,101593.11
2017-10-03T20:14:22.632Z,101603.66
2017-10-03T20:16:49.487Z,101614.62
2017-10-03T20:19:16.323Z,101610.35
2017-10-03T20:21:43.341Z,101602.41
2017-10-03T20:24:10.235Z,101602.12
2017-10-03T20:26:37.825Z,101607.13
2017-10-03T20:29:05.455Z,101607.33
2017-10-03T20:31:32.328Z,101610.11
2017-10-03T20:33:59.238Z,101608.94
2017-10-03T20:36:26.098Z,101614.95
2017-10-03T20:38:53.038Z,101621.84
2017-10-03T20:41:20.653Z,101613.19
2017-10-03T20:43:47.734Z,101619.95
2017-10-03T20:46:14.759Z,101610.88
2017-10-03T20:48:42.500Z,101618.52
2017-10-03T20:51:09.353Z,101614.87
2017-10-03T20:53:36.399Z,101597.30
2017-10-03T20:56:04.717Z,101597.64
2017-10-03T20:58:31.487Z,101597.80
2017-10-03T21:00:58.324Z,101598.97
2017-10-03T21:03:25.656Z,101600.61
2017-10-03T21:05:52.688Z,101603.95
2017-10-03T21:08:20.309Z,101611.00
2017-10-03T21:10:47.173Z,101610.43
2017-10-03T21:13:14.052Z,101616.06
2017-10-03T21:15:40.860Z,101620.70
2017-10-03T21:18:07.679Z,101615.27
2017-10-03T21:20:34.560Z,101617.30
2017-10-03T21:23:01.440Z,101614.94
2017-10-03T21:25:28.355Z,101610.80
2017-10-03T21:27:55.176Z,101612.84
2017-10-03T21:30:22.036Z,101604.77
2017-10-03T21:32:49.685Z,101599.77
2017-10-03T21:35:16.558Z,101596.20
2017-10-03T21:37:43.546Z,101604.69
2017-10-03T21:40:11.181Z,101598.27
2017-10-03T21:56:10.490Z,101593.69
2017-10-03T21:58:38.080Z,101604.25
2017-10-03T22:01:04.975Z,101600.76
2017-10-03T22:03:31.894Z,101600.89
2017-10-03T22:05:59.543Z,101610.45
2017-10-03T22:08:26.965Z,101614.41
2017-10-03T22:10:53.803Z,101616.67
2017-10-03T22:13:21.410Z,101624.86
2017-10-03T22:15:48.242Z,101614.78
2017-10-03T22:18:15.781Z,101626.63
2017-10-03T22:20:42.637Z,101632.98
2017-10-03T22:23:14.920Z,101635.71
2017-10-03T22:25:41.805Z,101616.22
2017-10-03T22:28:08.634Z,101626.63
2017-10-03T22:30:35.512Z,101607.27
2017-10-03T22:33:02.411Z,101620.55
2017-10-03T22:35:30.132Z,101623.46
2017-10-03T22:37:56.989Z,101620.16
2017-10-03T22:40:23.809Z,101621.72
2017-10-03T22:42:50.634Z,101621.84
2017-10-03T22:45:17.519Z,101607.50
2017-10-03T22:47:45.329Z,101617.36
2017-10-03T22:50:16.133Z,101629.02
2017-10-03T22:52:52.605Z,101640.09
2017-10-03T22:55:20.175Z,101625.09
2017-10-03T22:57:50.560Z,101620.34
2017-10-03T23:00:17.482Z,101609.65
2017-10-03T23:02:44.335Z,101596.42
2017-10-03T23:05:11.183Z,101608.16
2017-10-03T23:07:38.597Z,101606.65
2017-10-03T23:10:06.417Z,101600.39
2017-10-03T23:12:34.450Z,101593.81
2017-10-03T23:15:01.286Z,101601.86
2017-10-03T23:17:28.170Z,101599.73
2017-10-03T23:19:55.015Z,101603.55
2017-10-03T23:22:21.822Z,101607.88
2017-10-03T23:24:48.745Z,101602.38
2017-10-03T23:27:15.607Z,101602.50
2017-10-03T23:29:42.442Z,101595.56
2017-10-03T23:32:10.042Z,101596.41
2017-10-03T23:34:36.856Z,101601.06
2017-10-03T23:37:03.749Z,101601.09
2017-10-03T23:39:31.373Z,101607.11
2017-10-03T23:41:58.240Z,101601.62
2017-10-03T23:44:25.116Z,101600.45
2017-10-03T23:46:51.973Z,101605.67
2017-10-03T23:49:18.814Z,101597.53
2017-10-03T23:51:45.706Z,101597.13
2017-10-03T23:54:12.561Z,101603.80
2017-10-03T23:56:39.519Z,101597.42
2017-10-03T23:59:06.380Z,101591.40
